To NAV CANADA Home Page Login to a new session Search on AWWS site Feedback and Comments Disclaimer Vers la page française équivalente Tips FAQ What's new on the site To the Forecasts and Observations / NOTAM section To "File a Flight Plan" website Publications and other links Update of the User's profile FIC Telephone Numbers My Weather Data Folder Route Weather Data Regional Weather Data Local Weather Data To the Forecasts and Observations / NOTAM section
Request Generated 02/10/2016 at 06:30:10 UTC . Weather information available at that time is displayed.

METAR/TAF

BURWASH/YT    

METAR CYDB 100600Z AUTO 00000KT 9SM CLR M23/M26 A2993 RMK SLP229=
METAR CYDB 100500Z AUTO 29002KT 9SM CLR M23/M25 A2995 RMK SLP236=
METAR CYDB 100400Z AUTO 29002KT 9SM CLR M21/M23 A2997 RMK SLP240=

TAF CYDB 100538Z 1006/1018 VRB03KT P6SM FEW100 SCT200
FM101200 VRB03KT P6SM BKN080 TEMPO 1015/1018 5SM -SN BKN040
RMK FCST BASED ON AUTO OBS. NXT FCST BY 101200Z=
Your time UTC time
Weather data provided by Environment Canada and NAV CANADA